sensor_id;sensor_type;location;lat;lon;timestamp;pressure;altitude;pressure_sealevel;temperature
58929;BMP180;44713;53.378;10.022;2022-07-15T00:00:20;101598.00;;;13.40
58929;BMP180;44713;53.378;10.022;2022-07-15T00:02:46;101589.00;;;13.40
58929;BMP180;44713;53.378;10.022;2022-07-15T00:05:12;101588.00;;;13.40
58929;BMP180;44713;53.378;10.022;2022-07-15T00:07:38;101590.00;;;13.50
58929;BMP180;44713;53.378;10.022;2022-07-15T00:10:04;101594.00;;;13.50
58929;BMP180;44713;53.378;10.022;2022-07-15T00:12:54;101591.00;;;13.50
58929;BMP180;44713;53.378;10.022;2022-07-15T00:15:23;101586.00;;;13.50
58929;BMP180;44713;53.378;10.022;2022-07-15T00:17:48;101592.00;;;13.50
58929;BMP180;44713;53.378;10.022;2022-07-15T00:20:15;101591.00;;;13.50
58929;BMP180;44713;53.378;10.022;2022-07-15T00:22:42;101588.00;;;13.60
58929;BMP180;44713;53.378;10.022;2022-07-15T00:25:08;101586.00;;;13.60
58929;BMP180;44713;53.378;10.022;2022-07-15T00:27:34;101592.00;;;13.60
58929;BMP180;44713;53.378;10.022;2022-07-15T00:30:00;101581.00;;;13.60
58929;BMP180;44713;53.378;10.022;2022-07-15T00:32:25;101578.00;;;13.60
58929;BMP180;44713;53.378;10.022;2022-07-15T00:34:51;101586.00;;;13.60
58929;BMP180;44713;53.378;10.022;2022-07-15T00:37:17;101581.00;;;13.70
58929;BMP180;44713;53.378;10.022;2022-07-15T00:39:42;101583.00;;;13.70
58929;BMP180;44713;53.378;10.022;2022-07-15T00:42:11;101586.00;;;13.70
58929;BMP180;44713;53.378;10.022;2022-07-15T00:44:36;101576.00;;;13.70
58929;BMP180;44713;53.378;10.022;2022-07-15T00:47:03;101589.00;;;13.80
58929;BMP180;44713;53.378;10.022;2022-07-15T00:49:29;101584.00;;;13.80
58929;BMP180;44713;53.378;10.022;2022-07-15T00:51:55;101584.00;;;13.70
58929;BMP180;44713;53.378;10.022;2022-07-15T00:54:26;101583.00;;;13.80
58929;BMP180;44713;53.378;10.022;2022-07-15T00:56:56;101590.00;;;13.80
58929;BMP180;44713;53.378;10.022;2022-07-15T00:59:24;101581.00;;;13.70
58929;BMP180;44713;53.378;10.022;2022-07-15T01:01:52;101583.00;;;13.80
58929;BMP180;44713;53.378;10.022;2022-07-15T01:04:18;101588.00;;;13.70
58929;BMP180;44713;53.378;10.022;2022-07-15T01:06:43;101590.00;;;13.70
58929;BMP180;44713;53.378;10.022;2022-07-15T01:09:09;101593.00;;;13.80
58929;BMP180;44713;53.378;10.022;2022-07-15T01:11:35;101592.00;;;13.80
58929;BMP180;44713;53.378;10.022;2022-07-15T01:14:02;101581.00;;;13.70
58929;BMP180;44713;53.378;10.022;2022-07-15T01:16:28;101588.00;;;13.70
58929;BMP180;44713;53.378;10.022;2022-07-15T01:18:54;101589.00;;;13.70
58929;BMP180;44713;53.378;10.022;2022-07-15T01:21:22;101590.00;;;13.70
58929;BMP180;44713;53.378;10.022;2022-07-15T01:23:50;101592.00;;;13.70
58929;BMP180;44713;53.378;10.022;2022-07-15T01:26:38;101589.00;;;13.70
58929;BMP180;44713;53.378;10.022;2022-07-15T01:29:04;101590.00;;;13.60
58929;BMP180;44713;53.378;10.022;2022-07-15T01:31:30;101594.00;;;13.60
58929;BMP180;44713;53.378;10.022;2022-07-15T01:33:56;101599.00;;;13.60
58929;BMP180;44713;53.378;10.022;2022-07-15T01:36:22;101604.00;;;13.60
58929;BMP180;44713;53.378;10.022;2022-07-15T01:38:55;101595.00;;;13.60
58929;BMP180;44713;53.378;10.022;2022-07-15T01:41:21;101605.00;;;13.60
58929;BMP180;44713;53.378;10.022;2022-07-15T01:43:48;101598.00;;;13.60
58929;BMP180;44713;53.378;10.022;2022-07-15T01:46:14;101591.00;;;13.60
58929;BMP180;44713;53.378;10.022;2022-07-15T01:48:40;101598.00;;;13.50
58929;BMP180;44713;53.378;10.022;2022-07-15T01:51:41;101601.00;;;13.50
58929;BMP180;44713;53.378;10.022;2022-07-15T01:54:07;101600.00;;;13.40
58929;BMP180;44713;53.378;10.022;2022-07-15T01:56:32;101597.00;;;13.50
58929;BMP180;44713;53.378;10.022;2022-07-15T01:58:58;101601.00;;;13.50
58929;BMP180;44713;53.378;10.022;2022-07-15T02:01:23;101590.00;;;13.50
58929;BMP180;44713;53.378;10.022;2022-07-15T02:03:49;101585.00;;;13.50
58929;BMP180;44713;53.378;10.022;2022-07-15T02:06:15;101595.00;;;13.40
58929;BMP180;44713;53.378;10.022;2022-07-15T02:08:40;101597.00;;;13.30
58929;BMP180;44713;53.378;10.022;2022-07-15T02:11:10;101595.00;;;13.30
58929;BMP180;44713;53.378;10.022;2022-07-15T02:13:36;101598.00;;;13.20
58929;BMP180;44713;53.378;10.022;2022-07-15T02:16:02;101591.00;;;13.20
58929;BMP180;44713;53.378;10.022;2022-07-15T02:18:28;101600.00;;;13.30
58929;BMP180;44713;53.378;10.022;2022-07-15T02:20:54;101593.00;;;13.20
58929;BMP180;44713;53.378;10.022;2022-07-15T02:23:20;101602.00;;;13.20
58929;BMP180;44713;53.378;10.022;2022-07-15T02:25:45;101593.00;;;13.20
58929;BMP180;44713;53.378;10.022;2022-07-15T02:28:11;101598.00;;;13.20
58929;BMP180;44713;53.378;10.022;2022-07-15T02:30:38;101603.00;;;13.20
58929;BMP180;44713;53.378;10.022;2022-07-15T02:33:05;101602.00;;;13.20
58929;BMP180;44713;53.378;10.022;2022-07-15T02:35:32;101602.00;;;13.20
58929;BMP180;44713;53.378;10.022;2022-07-15T02:37:58;101619.00;;;13.10
58929;BMP180;44713;53.378;10.022;2022-07-15T02:40:25;101618.00;;;13.20
58929;BMP180;44713;53.378;10.022;2022-07-15T02:42:54;101623.00;;;13.20
58929;BMP180;44713;53.378;10.022;2022-07-15T02:45:21;101627.00;;;13.30
58929;BMP180;44713;53.378;10.022;2022-07-15T02:47:48;101627.00;;;13.30
58929;BMP180;44713;53.378;10.022;2022-07-15T02:50:21;101627.00;;;13.30
58929;BMP180;44713;53.378;10.022;2022-07-15T02:52:47;101624.00;;;13.30
58929;BMP180;44713;53.378;10.022;2022-07-15T02:55:14;101615.00;;;13.40
58929;BMP180;44713;53.378;10.022;2022-07-15T02:57:40;101613.00;;;13.40
58929;BMP180;44713;53.378;10.022;2022-07-15T03:00:13;101612.00;;;13.50
58929;BMP180;44713;53.378;10.022;2022-07-15T03:02:39;101617.00;;;13.40
58929;BMP180;44713;53.378;10.022;2022-07-15T03:05:07;101609.00;;;13.40
58929;BMP180;44713;53.378;10.022;2022-07-15T03:07:35;101615.00;;;13.40
58929;BMP180;44713;53.378;10.022;2022-07-15T03:10:02;101609.00;;;13.40
58929;BMP180;44713;53.378;10.022;2022-07-15T03:12:28;101613.00;;;13.30
58929;BMP180;44713;53.378;10.022;2022-07-15T03:14:54;101606.00;;;13.40
58929;BMP180;44713;53.378;10.022;2022-07-15T03:17:20;101607.00;;;13.40
58929;BMP180;44713;53.378;10.022;2022-07-15T03:19:46;101615.00;;;13.30
58929;BMP180;44713;53.378;10.022;2022-07-15T03:22:11;101606.00;;;13.40
58929;BMP180;44713;53.378;10.022;2022-07-15T03:24:37;101606.00;;;13.40
58929;BMP180;44713;53.378;10.022;2022-07-15T03:27:02;101612.00;;;13.50
58929;BMP180;44713;53.378;10.022;2022-07-15T03:29:29;101621.00;;;13.50
58929;BMP180;44713;53.378;10.022;2022-07-15T03:31:56;101621.00;;;13.50
58929;BMP180;44713;53.378;10.022;2022-07-15T03:34:24;101621.00;;;13.50
58929;BMP180;44713;53.378;10.022;2022-07-15T03:36:53;101623.00;;;13.50
58929;BMP180;44713;53.378;10.022;2022-07-15T03:39:22;101624.00;;;13.40
58929;BMP180;44713;53.378;10.022;2022-07-15T03:41:47;101626.00;;;13.40
58929;BMP180;44713;53.378;10.022;2022-07-15T03:44:13;101634.00;;;13.30
58929;BMP180;44713;53.378;10.022;2022-07-15T03:46:39;101636.00;;;13.30
58929;BMP180;44713;53.378;10.022;2022-07-15T03:49:05;101639.00;;;13.30
58929;BMP180;44713;53.378;10.022;2022-07-15T03:51:32;101636.00;;;13.30
58929;BMP180;44713;53.378;10.022;2022-07-15T03:54:02;101633.00;;;13.20
58929;BMP180;44713;53.378;10.022;2022-07-15T03:56:28;101634.00;;;13.30
58929;BMP180;44713;53.378;10.022;2022-07-15T03:58:54;101636.00;;;13.30
58929;BMP180;44713;53.378;10.022;2022-07-15T04:01:20;101642.00;;;13.30
58929;BMP180;44713;53.378;10.022;2022-07-15T04:03:50;101643.00;;;13.30
58929;BMP180;44713;53.378;10.022;2022-07-15T04:06:16;101646.00;;;13.30
58929;BMP180;44713;53.378;10.022;2022-07-15T04:08:42;101643.00;;;13.40
58929;BMP180;44713;53.378;10.022;2022-07-15T04:11:08;101651.00;;;13.40
58929;BMP180;44713;53.378;10.022;2022-07-15T04:13:33;101649.00;;;13.30
58929;BMP180;44713;53.378;10.022;2022-07-15T04:15:59;101646.00;;;13.40
58929;BMP180;44713;53.378;10.022;2022-07-15T04:18:24;101652.00;;;13.50
58929;BMP180;44713;53.378;10.022;2022-07-15T04:20:51;101642.00;;;13.50
58929;BMP180;44713;53.378;10.022;2022-07-15T04:23:16;101647.00;;;13.50
58929;BMP180;44713;53.378;10.022;2022-07-15T04:25:42;101641.00;;;13.50
58929;BMP180;44713;53.378;10.022;2022-07-15T04:28:08;101644.00;;;13.50
58929;BMP180;44713;53.378;10.022;2022-07-15T04:30:34;101650.00;;;13.60
58929;BMP180;44713;53.378;10.022;2022-07-15T04:33:00;101653.00;;;13.60
58929;BMP180;44713;53.378;10.022;2022-07-15T04:35:29;101661.00;;;13.70
58929;BMP180;44713;53.378;10.022;2022-07-15T04:38:01;101664.00;;;13.70
58929;BMP180;44713;53.378;10.022;2022-07-15T04:40:28;101663.00;;;13.50
58929;BMP180;44713;53.378;10.022;2022-07-15T04:42:53;101665.00;;;13.60
58929;BMP180;44713;53.378;10.022;2022-07-15T04:45:19;101662.00;;;13.60
58929;BMP180;44713;53.378;10.022;2022-07-15T04:47:44;101660.00;;;13.60
58929;BMP180;44713;53.378;10.022;2022-07-15T04:50:15;101661.00;;;13.60
58929;BMP180;44713;53.378;10.022;2022-07-15T04:52:59;101669.00;;;13.70
58929;BMP180;44713;53.378;10.022;2022-07-15T04:55:25;101664.00;;;13.60
58929;BMP180;44713;53.378;10.022;2022-07-15T04:58:00;101671.00;;;13.70
58929;BMP180;44713;53.378;10.022;2022-07-15T05:00:26;101665.00;;;13.80
58929;BMP180;44713;53.378;10.022;2022-07-15T05:02:52;101676.00;;;13.80
58929;BMP180;44713;53.378;10.022;2022-07-15T05:05:18;101674.00;;;13.80
58929;BMP180;44713;53.378;10.022;2022-07-15T05:07:44;101671.00;;;13.90
58929;BMP180;44713;53.378;10.022;2022-07-15T05:10:11;101667.00;;;13.90
58929;BMP180;44713;53.378;10.022;2022-07-15T05:12:41;101667.00;;;13.90
58929;BMP180;44713;53.378;10.022;2022-07-15T05:15:06;101672.00;;;14.00
58929;BMP180;44713;53.378;10.022;2022-07-15T05:17:33;101682.00;;;13.90
58929;BMP180;44713;53.378;10.022;2022-07-15T05:19:59;101680.00;;;14.00
58929;BMP180;44713;53.378;10.022;2022-07-15T05:22:24;101677.00;;;14.00
58929;BMP180;44713;53.378;10.022;2022-07-15T05:24:50;101678.00;;;14.10
58929;BMP180;44713;53.378;10.022;2022-07-15T05:27:16;101687.00;;;14.20
58929;BMP180;44713;53.378;10.022;2022-07-15T05:29:45;101688.00;;;14.30
58929;BMP180;44713;53.378;10.022;2022-07-15T05:32:11;101691.00;;;14.20
58929;BMP180;44713;53.378;10.022;2022-07-15T05:34:36;101693.00;;;14.20
58929;BMP180;44713;53.378;10.022;2022-07-15T05:37:02;101700.00;;;14.30
58929;BMP180;44713;53.378;10.022;2022-07-15T05:39:27;101689.00;;;14.20
58929;BMP180;44713;53.378;10.022;2022-07-15T05:41:53;101702.00;;;14.40
58929;BMP180;44713;53.378;10.022;2022-07-15T05:44:19;101692.00;;;14.50
58929;BMP180;44713;53.378;10.022;2022-07-15T05:46:47;101701.00;;;14.40
58929;BMP180;44713;53.378;10.022;2022-07-15T05:49:13;101694.00;;;14.50
58929;BMP180;44713;53.378;10.022;2022-07-15T05:51:39;101697.00;;;14.60
58929;BMP180;44713;53.378;10.022;2022-07-15T05:54:04;101697.00;;;14.60
58929;BMP180;44713;53.378;10.022;2022-07-15T05:56:31;101705.00;;;14.70
58929;BMP180;44713;53.378;10.022;2022-07-15T05:58:57;101706.00;;;14.80
58929;BMP180;44713;53.378;10.022;2022-07-15T06:01:28;101718.00;;;14.80
58929;BMP180;44713;53.378;10.022;2022-07-15T06:03:53;101717.00;;;14.70
58929;BMP180;44713;53.378;10.022;2022-07-15T06:06:19;101723.00;;;14.70
58929;BMP180;44713;53.378;10.022;2022-07-15T06:08:46;101724.00;;;14.70
58929;BMP180;44713;53.378;10.022;2022-07-15T06:11:12;101732.00;;;14.80
58929;BMP180;44713;53.378;10.022;2022-07-15T06:13:38;101727.00;;;14.80
58929;BMP180;44713;53.378;10.022;2022-07-15T06:16:05;101731.00;;;14.90
58929;BMP180;44713;53.378;10.022;2022-07-15T06:18:32;101731.00;;;15.00
58929;BMP180;44713;53.378;10.022;2022-07-15T06:20:57;101732.00;;;15.10
58929;BMP180;44713;53.378;10.022;2022-07-15T06:23:23;101725.00;;;15.10
58929;BMP180;44713;53.378;10.022;2022-07-15T06:25:48;101730.00;;;15.10
58929;BMP180;44713;53.378;10.022;2022-07-15T06:28:14;101739.00;;;15.10
58929;BMP180;44713;53.378;10.022;2022-07-15T06:30:39;101733.00;;;15.20
58929;BMP180;44713;53.378;10.022;2022-07-15T06:33:05;101739.00;;;15.20
58929;BMP180;44713;53.378;10.022;2022-07-15T06:35:30;101739.00;;;15.20
58929;BMP180;44713;53.378;10.022;2022-07-15T06:37:56;101742.00;;;15.30
58929;BMP180;44713;53.378;10.022;2022-07-15T06:40:22;101733.00;;;15.20
58929;BMP180;44713;53.378;10.022;2022-07-15T06:42:48;101736.00;;;15.30
58929;BMP180;44713;53.378;10.022;2022-07-15T06:45:23;101734.00;;;15.30
58929;BMP180;44713;53.378;10.022;2022-07-15T06:47:49;101735.00;;;15.30
58929;BMP180;44713;53.378;10.022;2022-07-15T06:50:14;101740.00;;;15.30
58929;BMP180;44713;53.378;10.022;2022-07-15T06:52:43;101726.00;;;15.50
58929;BMP180;44713;53.378;10.022;2022-07-15T06:55:09;101730.00;;;15.60
58929;BMP180;44713;53.378;10.022;2022-07-15T06:57:36;101733.00;;;15.70
58929;BMP180;44713;53.378;10.022;2022-07-15T07:00:02;101731.00;;;15.80
58929;BMP180;44713;53.378;10.022;2022-07-15T07:02:28;101721.00;;;15.90
58929;BMP180;44713;53.378;10.022;2022-07-15T07:04:56;101724.00;;;16.00
58929;BMP180;44713;53.378;10.022;2022-07-15T07:07:22;101732.00;;;16.10
58929;BMP180;44713;53.378;10.022;2022-07-15T07:09:47;101729.00;;;16.30
58929;BMP180;44713;53.378;10.022;2022-07-15T07:12:13;101724.00;;;16.40
58929;BMP180;44713;53.378;10.022;2022-07-15T07:14:38;101725.00;;;16.50
58929;BMP180;44713;53.378;10.022;2022-07-15T07:17:03;101728.00;;;16.50
58929;BMP180;44713;53.378;10.022;2022-07-15T07:19:29;101725.00;;;16.40
58929;BMP180;44713;53.378;10.022;2022-07-15T07:21:54;101726.00;;;16.30
58929;BMP180;44713;53.378;10.022;2022-07-15T07:24:19;101723.00;;;16.30
58929;BMP180;44713;53.378;10.022;2022-07-15T07:26:45;101730.00;;;16.30
58929;BMP180;44713;53.378;10.022;2022-07-15T07:29:10;101730.00;;;16.30
58929;BMP180;44713;53.378;10.022;2022-07-15T07:31:37;101725.00;;;16.40
58929;BMP180;44713;53.378;10.022;2022-07-15T07:34:03;101728.00;;;16.40
58929;BMP180;44713;53.378;10.022;2022-07-15T07:36:28;101721.00;;;16.50
58929;BMP180;44713;53.378;10.022;2022-07-15T07:38:54;101733.00;;;16.40
58929;BMP180;44713;53.378;10.022;2022-07-15T07:41:19;101720.00;;;16.40
58929;BMP180;44713;53.378;10.022;2022-07-15T07:43:45;101728.00;;;16.40
58929;BMP180;44713;53.378;10.022;2022-07-15T07:46:12;101738.00;;;16.30
58929;BMP180;44713;53.378;10.022;2022-07-15T07:48:38;101745.00;;;16.20
58929;BMP180;44713;53.378;10.022;2022-07-15T07:51:05;101746.00;;;16.10
58929;BMP180;44713;53.378;10.022;2022-07-15T07:53:30;101745.00;;;16.20
58929;BMP180;44713;53.378;10.022;2022-07-15T07:55:56;101748.00;;;16.10
58929;BMP180;44713;53.378;10.022;2022-07-15T07:58:21;101742.00;;;16.10
58929;BMP180;44713;53.378;10.022;2022-07-15T08:00:47;101742.00;;;16.10
58929;BMP180;44713;53.378;10.022;2022-07-15T08:03:13;101752.00;;;16.10
58929;BMP180;44713;53.378;10.022;2022-07-15T08:05:38;101747.00;;;16.00
58929;BMP180;44713;53.378;10.022;2022-07-15T08:10:35;101746.00;;;16.00
58929;BMP180;44713;53.378;10.022;2022-07-15T08:13:01;101754.00;;;16.20
58929;BMP180;44713;53.378;10.022;2022-07-15T08:15:26;101749.00;;;16.20
58929;BMP180;44713;53.378;10.022;2022-07-15T08:17:52;101756.00;;;16.20
58929;BMP180;44713;53.378;10.022;2022-07-15T08:20:17;101760.00;;;16.00
58929;BMP180;44713;53.378;10.022;2022-07-15T08:22:43;101760.00;;;16.00
58929;BMP180;44713;53.378;10.022;2022-07-15T08:25:08;101757.00;;;16.00
58929;BMP180;44713;53.378;10.022;2022-07-15T08:27:33;101754.00;;;16.10
58929;BMP180;44713;53.378;10.022;2022-07-15T08:29:59;101748.00;;;16.20
58929;BMP180;44713;53.378;10.022;2022-07-15T08:32:24;101746.00;;;16.50
58929;BMP180;44713;53.378;10.022;2022-07-15T08:34:50;101753.00;;;16.70
58929;BMP180;44713;53.378;10.022;2022-07-15T08:37:15;101751.00;;;16.90
58929;BMP180;44713;53.378;10.022;2022-07-15T08:39:42;101741.00;;;17.00
58929;BMP180;44713;53.378;10.022;2022-07-15T08:42:07;101741.00;;;17.00
58929;BMP180;44713;53.378;10.022;2022-07-15T08:44:33;101740.00;;;17.20
58929;BMP180;44713;53.378;10.022;2022-07-15T08:47:03;101732.00;;;17.40
58929;BMP180;44713;53.378;10.022;2022-07-15T08:49:30;101725.00;;;17.60
58929;BMP180;44713;53.378;10.022;2022-07-15T08:51:58;101734.00;;;17.70
58929;BMP180;44713;53.378;10.022;2022-07-15T08:54:23;101725.00;;;17.90
58929;BMP180;44713;53.378;10.022;2022-07-15T08:56:49;101726.00;;;18.00
58929;BMP180;44713;53.378;10.022;2022-07-15T08:59:14;101730.00;;;18.20
58929;BMP180;44713;53.378;10.022;2022-07-15T09:01:42;101725.00;;;18.40
58929;BMP180;44713;53.378;10.022;2022-07-15T09:04:08;101730.00;;;18.40
58929;BMP180;44713;53.378;10.022;2022-07-15T09:06:42;101734.00;;;18.50
58929;BMP180;44713;53.378;10.022;2022-07-15T09:12:07;101728.00;;;18.00
58929;BMP180;44713;53.378;10.022;2022-07-15T09:14:35;101733.00;;;18.00
58929;BMP180;44713;53.378;10.022;2022-07-15T09:20:02;101727.00;;;18.20
58929;BMP180;44713;53.378;10.022;2022-07-15T09:22:31;101733.00;;;18.40
58929;BMP180;44713;53.378;10.022;2022-07-15T09:25:09;101746.00;;;18.50
58929;BMP180;44713;53.378;10.022;2022-07-15T09:27:37;101734.00;;;18.60
58929;BMP180;44713;53.378;10.022;2022-07-15T09:30:34;101740.00;;;18.60
58929;BMP180;44713;53.378;10.022;2022-07-15T09:33:22;101742.00;;;18.40
58929;BMP180;44713;53.378;10.022;2022-07-15T09:38:35;101744.00;;;18.30
58929;BMP180;44713;53.378;10.022;2022-07-15T09:41:01;101744.00;;;18.20
58929;BMP180;44713;53.378;10.022;2022-07-15T09:43:27;101745.00;;;18.10
58929;BMP180;44713;53.378;10.022;2022-07-15T09:45:59;101754.00;;;18.10
58929;BMP180;44713;53.378;10.022;2022-07-15T09:48:26;101759.00;;;17.90
58929;BMP180;44713;53.378;10.022;2022-07-15T09:50:57;101765.00;;;17.90
58929;BMP180;44713;53.378;10.022;2022-07-15T09:53:24;101762.00;;;17.80
58929;BMP180;44713;53.378;10.022;2022-07-15T09:55:50;101761.00;;;17.80
58929;BMP180;44713;53.378;10.022;2022-07-15T09:58:17;101753.00;;;17.90
58929;BMP180;44713;53.378;10.022;2022-07-15T10:00:43;101757.00;;;18.40
58929;BMP180;44713;53.378;10.022;2022-07-15T10:03:08;101759.00;;;18.30
58929;BMP180;44713;53.378;10.022;2022-07-15T10:05:35;101748.00;;;18.90
58929;BMP180;44713;53.378;10.022;2022-07-15T10:08:01;101753.00;;;19.50
58929;BMP180;44713;53.378;10.022;2022-07-15T10:10:27;101749.00;;;19.70
58929;BMP180;44713;53.378;10.022;2022-07-15T10:13:09;101750.00;;;19.50
58929;BMP180;44713;53.378;10.022;2022-07-15T10:15:52;101749.00;;;19.00
58929;BMP180;44713;53.378;10.022;2022-07-15T10:18:33;101761.00;;;19.10
58929;BMP180;44713;53.378;10.022;2022-07-15T10:21:17;101751.00;;;19.10
58929;BMP180;44713;53.378;10.022;2022-07-15T10:27:13;101756.00;;;20.00
58929;BMP180;44713;53.378;10.022;2022-07-15T10:29:42;101762.00;;;20.00
58929;BMP180;44713;53.378;10.022;2022-07-15T10:32:08;101752.00;;;20.00
58929;BMP180;44713;53.378;10.022;2022-07-15T10:34:38;101754.00;;;19.90
58929;BMP180;44713;53.378;10.022;2022-07-15T10:37:11;101751.00;;;19.80
58929;BMP180;44713;53.378;10.022;2022-07-15T10:42:11;101752.00;;;20.00
58929;BMP180;44713;53.378;10.022;2022-07-15T10:44:49;101753.00;;;19.80
58929;BMP180;44713;53.378;10.022;2022-07-15T10:49:41;101745.00;;;20.00
58929;BMP180;44713;53.378;10.022;2022-07-15T10:54:59;101740.00;;;20.30
58929;BMP180;44713;53.378;10.022;2022-07-15T11:00:25;101753.00;;;20.20
58929;BMP180;44713;53.378;10.022;2022-07-15T11:03:05;101746.00;;;20.20
58929;BMP180;44713;53.378;10.022;2022-07-15T11:05:31;101748.00;;;20.00
58929;BMP180;44713;53.378;10.022;2022-07-15T11:07:57;101742.00;;;19.90
58929;BMP180;44713;53.378;10.022;2022-07-15T11:10:23;101740.00;;;20.00
58929;BMP180;44713;53.378;10.022;2022-07-15T11:15:20;101739.00;;;20.30
58929;BMP180;44713;53.378;10.022;2022-07-15T11:17:50;101740.00;;;20.50
58929;BMP180;44713;53.378;10.022;2022-07-15T11:20:19;101741.00;;;20.60
58929;BMP180;44713;53.378;10.022;2022-07-15T11:22:47;101736.00;;;20.40
58929;BMP180;44713;53.378;10.022;2022-07-15T11:25:18;101729.00;;;20.60
58929;BMP180;44713;53.378;10.022;2022-07-15T11:30:25;101742.00;;;20.40
58929;BMP180;44713;53.378;10.022;2022-07-15T11:32:55;101738.00;;;20.40
58929;BMP180;44713;53.378;10.022;2022-07-15T11:35:21;101742.00;;;20.40
58929;BMP180;44713;53.378;10.022;2022-07-15T11:37:46;101736.00;;;20.60
58929;BMP180;44713;53.378;10.022;2022-07-15T11:40:15;101751.00;;;20.40
58929;BMP180;44713;53.378;10.022;2022-07-15T11:43:03;101742.00;;;20.30
58929;BMP180;44713;53.378;10.022;2022-07-15T11:45:47;101750.00;;;20.10
58929;BMP180;44713;53.378;10.022;2022-07-15T11:48:13;101758.00;;;19.90
58929;BMP180;44713;53.378;10.022;2022-07-15T11:50:50;101753.00;;;20.00
58929;BMP180;44713;53.378;10.022;2022-07-15T11:53:16;101741.00;;;20.20
58929;BMP180;44713;53.378;10.022;2022-07-15T11:55:56;101748.00;;;20.30
58929;BMP180;44713;53.378;10.022;2022-07-15T12:01:04;101750.00;;;19.90
58929;BMP180;44713;53.378;10.022;2022-07-15T12:03:48;101740.00;;;19.90
58929;BMP180;44713;53.378;10.022;2022-07-15T12:06:15;101740.00;;;19.70
58929;BMP180;44713;53.378;10.022;2022-07-15T12:11:13;101738.00;;;19.60
58929;BMP180;44713;53.378;10.022;2022-07-15T12:13:42;101746.00;;;19.60
58929;BMP180;44713;53.378;10.022;2022-07-15T12:16:08;101741.00;;;19.50
58929;BMP180;44713;53.378;10.022;2022-07-15T12:18:34;101743.00;;;19.50
58929;BMP180;44713;53.378;10.022;2022-07-15T12:21:00;101737.00;;;19.70
58929;BMP180;44713;53.378;10.022;2022-07-15T12:23:25;101736.00;;;20.00
58929;BMP180;44713;53.378;10.022;2022-07-15T12:26:02;101737.00;;;19.80
58929;BMP180;44713;53.378;10.022;2022-07-15T12:28:31;101735.00;;;20.50
58929;BMP180;44713;53.378;10.022;2022-07-15T12:30:57;101741.00;;;20.80
58929;BMP180;44713;53.378;10.022;2022-07-15T12:33:23;101743.00;;;20.50
58929;BMP180;44713;53.378;10.022;2022-07-15T12:35:49;101746.00;;;20.50
58929;BMP180;44713;53.378;10.022;2022-07-15T12:38:30;101744.00;;;20.20
58929;BMP180;44713;53.378;10.022;2022-07-15T12:41:06;101737.00;;;20.70
58929;BMP180;44713;53.378;10.022;2022-07-15T12:46:12;101741.00;;;21.70
58929;BMP180;44713;53.378;10.022;2022-07-15T12:48:45;101742.00;;;21.80
58929;BMP180;44713;53.378;10.022;2022-07-15T12:51:12;101742.00;;;21.60
58929;BMP180;44713;53.378;10.022;2022-07-15T12:53:38;101748.00;;;21.60
58929;BMP180;44713;53.378;10.022;2022-07-15T12:56:04;101740.00;;;20.80
58929;BMP180;44713;53.378;10.022;2022-07-15T12:58:31;101756.00;;;20.40
58929;BMP180;44713;53.378;10.022;2022-07-15T13:01:10;101752.00;;;20.20
58929;BMP180;44713;53.378;10.022;2022-07-15T13:03:36;101757.00;;;20.10
58929;BMP180;44713;53.378;10.022;2022-07-15T13:06:02;101762.00;;;20.00
58929;BMP180;44713;53.378;10.022;2022-07-15T13:08:33;101774.00;;;19.70
58929;BMP180;44713;53.378;10.022;2022-07-15T13:11:01;101778.00;;;19.50
58929;BMP180;44713;53.378;10.022;2022-07-15T13:13:31;101764.00;;;19.20
58929;BMP180;44713;53.378;10.022;2022-07-15T13:15:57;101775.00;;;19.10
58929;BMP180;44713;53.378;10.022;2022-07-15T13:18:27;101784.00;;;19.00
58929;BMP180;44713;53.378;10.022;2022-07-15T13:20:53;101789.00;;;18.90
58929;BMP180;44713;53.378;10.022;2022-07-15T13:23:19;101803.00;;;18.60
58929;BMP180;44713;53.378;10.022;2022-07-15T13:25:44;101806.00;;;18.30
58929;BMP180;44713;53.378;10.022;2022-07-15T13:28:11;101798.00;;;18.00
58929;BMP180;44713;53.378;10.022;2022-07-15T13:30:37;101791.00;;;18.20
58929;BMP180;44713;53.378;10.022;2022-07-15T13:33:03;101785.00;;;18.20
58929;BMP180;44713;53.378;10.022;2022-07-15T13:35:29;101787.00;;;18.30
58929;BMP180;44713;53.378;10.022;2022-07-15T13:37:54;101782.00;;;18.40
58929;BMP180;44713;53.378;10.022;2022-07-15T13:40:20;101785.00;;;18.60
58929;BMP180;44713;53.378;10.022;2022-07-15T13:42:46;101784.00;;;18.70
58929;BMP180;44713;53.378;10.022;2022-07-15T13:45:12;101782.00;;;18.70
58929;BMP180;44713;53.378;10.022;2022-07-15T13:47:39;101767.00;;;18.90
58929;BMP180;44713;53.378;10.022;2022-07-15T13:50:05;101761.00;;;19.40
58929;BMP180;44713;53.378;10.022;2022-07-15T13:52:51;101767.00;;;20.00
58929;BMP180;44713;53.378;10.022;2022-07-15T13:55:18;101754.00;;;20.20
58929;BMP180;44713;53.378;10.022;2022-07-15T13:57:44;101765.00;;;20.50
58929;BMP180;44713;53.378;10.022;2022-07-15T14:00:13;101763.00;;;20.60
58929;BMP180;44713;53.378;10.022;2022-07-15T14:02:39;101756.00;;;20.30
58929;BMP180;44713;53.378;10.022;2022-07-15T14:05:05;101752.00;;;20.30
58929;BMP180;44713;53.378;10.022;2022-07-15T14:07:31;101745.00;;;19.90
58929;BMP180;44713;53.378;10.022;2022-07-15T14:09:56;101751.00;;;20.20
58929;BMP180;44713;53.378;10.022;2022-07-15T14:12:22;101747.00;;;20.80
58929;BMP180;44713;53.378;10.022;2022-07-15T14:14:47;101740.00;;;20.80
58929;BMP180;44713;53.378;10.022;2022-07-15T14:17:13;101739.00;;;21.20
58929;BMP180;44713;53.378;10.022;2022-07-15T14:19:38;101738.00;;;21.20
58929;BMP180;44713;53.378;10.022;2022-07-15T14:22:04;101731.00;;;21.10
58929;BMP180;44713;53.378;10.022;2022-07-15T14:24:29;101731.00;;;21.20